Time;durP1;ratioP1;P1;durP2;ratioP2;P2;SDS_P1;SDS_P2;PMS_P1;PMS_P2;Temp;Humidity;BMP_temperature;BMP_pressure;BME280_temperature;BME280_humidity;BME280_pressure;Samples;Min_cycle;Max_cycle;Signal;HPM_P1;HPM_P2
2023/09/08 00:01:23;;;;;;;12.87;11.40;;;19.40;1.00;;;;;;5069153;28;20463;-75
2023/09/08 00:03:51;;;;;;;12.17;11.07;;;19.40;1.00;;;;;;5054126;28;20459;-75
2023/09/08 00:06:18;;;;;;;12.80;11.77;;;19.40;1.00;;;;;;5055364;28;20556;-75
2023/09/08 00:08:45;;;;;;;13.83;12.60;;;19.40;1.00;;;;;;5061151;28;21410;-74
2023/09/08 00:11:13;;;;;;;14.53;13.23;;;19.30;1.00;;;;;;5062989;28;20474;-74
2023/09/08 00:13:40;;;;;;;13.90;12.67;;;19.30;1.00;;;;;;5062289;28;20506;-76
2023/09/08 00:16:09;;;;;;;14.30;13.03;;;19.30;1.00;;;;;;5056591;28;20920;-74
2023/09/08 00:18:37;;;;;;;14.00;12.90;;;19.20;1.00;;;;;;5056422;28;21198;-74
2023/09/08 00:21:04;;;;;;;14.43;13.13;;;19.10;1.00;;;;;;5056325;28;20458;-76
2023/09/08 00:23:31;;;;;;;15.80;14.40;;;19.10;1.00;;;;;;5063549;28;20438;-75
2023/09/08 00:25:58;;;;;;;13.53;12.50;;;19.10;1.00;;;;;;5065944;28;20507;-77
2023/09/08 00:28:26;;;;;;;14.93;13.63;;;19.00;1.00;;;;;;5056410;28;20473;-75
2023/09/08 00:30:53;;;;;;;14.47;13.17;;;19.00;1.00;;;;;;5054210;28;20517;-76
2023/09/08 00:33:22;;;;;;;14.80;13.60;;;18.90;1.00;;;;;;5055261;28;20589;-73
2023/09/08 00:35:50;;;;;;;14.23;12.93;;;19.00;1.00;;;;;;5055635;28;20596;-74
2023/09/08 00:38:17;;;;;;;15.00;13.70;;;19.00;1.00;;;;;;5051840;28;20463;-76
2023/09/08 00:40:44;;;;;;;13.07;11.97;;;18.90;1.00;;;;;;5055624;28;20516;-75
2023/09/08 00:43:11;;;;;;;14.87;13.47;;;18.90;1.00;;;;;;5033237;28;20626;-77
2023/09/08 00:45:43;;;;;;;14.40;13.20;;;18.90;1.00;;;;;;5052254;28;20489;-75
2023/09/08 00:48:11;;;;;;;15.07;13.73;;;18.90;1.00;;;;;;5048058;28;21873;-76
2023/09/08 00:50:38;;;;;;;13.77;12.67;;;18.90;1.00;;;;;;5032348;28;20458;-75
2023/09/08 00:53:05;;;;;;;14.23;12.93;;;18.90;1.00;;;;;;5048664;28;20457;-73
2023/09/08 00:55:33;;;;;;;14.77;13.37;;;18.90;1.00;;;;;;5054645;28;20528;-73
2023/09/08 00:58:03;;;;;;;13.97;12.70;;;18.80;1.00;;;;;;5054203;28;20524;-71
2023/09/08 01:00:29;;;;;;;14.30;13.10;;;18.70;1.00;;;;;;5049294;28;20908;-71
2023/09/08 01:02:58;;;;;;;13.73;12.40;;;18.80;1.00;;;;;;5059675;28;22288;-74
2023/09/08 01:05:25;;;;;;;13.53;12.30;;;18.80;1.00;;;;;;5061293;28;20469;-73
2023/09/08 01:07:53;;;;;;;12.07;11.07;;;18.80;1.00;;;;;;5052534;28;20470;-72
2023/09/08 01:10:20;;;;;;;13.90;12.80;;;18.80;1.00;;;;;;5054107;28;20475;-74
2023/09/08 01:12:48;;;;;;;12.30;11.20;;;18.80;1.00;;;;;;5049051;28;20626;-72
2023/09/08 01:15:15;;;;;;;14.20;13.00;;;18.80;1.00;;;;;;5056324;28;20448;-73
2023/09/08 01:17:42;;;;;;;14.20;13.00;;;18.80;1.00;;;;;;5050568;28;20454;-74
2023/09/08 01:20:21;;;;;;;13.83;12.37;;;18.70;1.00;;;;;;5051744;28;20956;-73
2023/09/08 01:23:12;;;;;;;12.60;11.63;;;18.70;1.00;;;;;;5052560;28;20472;-72
2023/09/08 01:25:45;;;;;;;13.03;11.83;;;18.60;1.00;;;;;;5060698;28;20582;-74
2023/09/08 01:28:13;;;;;;;14.03;12.70;;;18.50;1.00;;;;;;5054689;28;20476;-74
2023/09/08 01:30:40;;;;;;;13.83;12.53;;;18.50;1.00;;;;;;5053678;28;20467;-74
2023/09/08 01:33:08;;;;;;;13.70;12.50;;;18.40;1.00;;;;;;5054406;28;20468;-74
2023/09/08 01:35:36;;;;;;;14.10;12.80;;;18.40;1.00;;;;;;5064855;28;20454;-73
2023/09/08 01:38:03;;;;;;;13.53;12.40;;;18.40;1.00;;;;;;5065104;28;20479;-71
2023/09/08 01:40:30;;;;;;;13.60;12.47;;;18.30;1.00;;;;;;5060890;28;20460;-74
2023/09/08 01:42:58;;;;;;;13.07;12.07;;;18.40;1.00;;;;;;5063618;28;20453;-72
2023/09/08 01:45:25;;;;;;;14.40;13.07;;;18.40;1.00;;;;;;5062865;28;21011;-72
2023/09/08 01:47:54;;;;;;;14.10;12.70;;;18.40;1.00;;;;;;5065550;28;20480;-73
2023/09/08 01:50:22;;;;;;;13.97;12.83;;;18.30;1.00;;;;;;5062887;28;20453;-72
2023/09/08 01:52:49;;;;;;;13.53;12.43;;;18.30;1.00;;;;;;5047862;28;20460;-72
2023/09/08 01:55:17;;;;;;;13.60;12.47;;;18.30;1.00;;;;;;5067602;28;20524;-73
2023/09/08 01:57:44;;;;;;;14.47;13.17;;;18.20;1.00;;;;;;5067756;28;20913;-74
2023/09/08 02:00:13;;;;;;;13.50;12.30;;;18.20;1.00;;;;;;5068803;28;21004;-71
2023/09/08 02:02:41;;;;;;;14.03;12.63;;;18.20;1.00;;;;;;5061958;28;20462;-73
2023/09/08 02:05:09;;;;;;;14.57;13.33;;;18.20;1.00;;;;;;5051607;28;20471;-70
2023/09/08 02:07:36;;;;;;;13.87;12.57;;;18.20;1.00;;;;;;5035351;28;20574;-73
2023/09/08 02:10:03;;;;;;;14.27;12.97;;;18.00;1.00;;;;;;5059206;28;21013;-72
2023/09/08 02:18:09;;;;;;;15.23;14.03;;;18.00;1.00;;;;;;4083729;22;20446;-72
2023/09/08 02:20:36;;;;;;;14.23;12.97;;;17.90;1.00;;;;;;5060919;28;20619;-71
2023/09/08 02:23:06;;;;;;;14.37;12.90;;;17.90;1.00;;;;;;5061674;28;20535;-70
2023/09/08 02:25:33;;;;;;;15.10;13.80;;;17.90;1.00;;;;;;5057359;28;20479;-74
2023/09/08 02:28:02;;;;;;;15.03;13.77;;;17.90;1.00;;;;;;5049561;28;20468;-73
2023/09/08 02:30:29;;;;;;;14.90;13.57;;;17.90;1.00;;;;;;5049457;28;20459;-72
2023/09/08 02:32:56;;;;;;;14.43;13.23;;;17.90;1.00;;;;;;5050893;28;21297;-74
2023/09/08 02:35:25;;;;;;;15.67;13.00;;;17.90;1.00;;;;;;5028936;28;20538;-74
2023/09/08 02:37:51;;;;;;;13.80;12.60;;;17.90;1.00;;;;;;5058788;28;20584;-74
2023/09/08 02:40:20;;;;;;;13.70;12.60;;;17.80;1.00;;;;;;5069800;28;20479;-71
2023/09/08 02:42:47;;;;;;;14.73;13.37;;;17.90;1.00;;;;;;5074940;28;20465;-74
2023/09/08 02:45:14;;;;;;;14.37;13.03;;;17.90;1.00;;;;;;5068708;28;20526;-73
2023/09/08 02:47:41;;;;;;;15.07;13.80;;;17.90;1.00;;;;;;5068222;28;20451;-73
2023/09/08 02:50:08;;;;;;;15.17;13.77;;;17.80;1.00;;;;;;5070365;28;20539;-72
2023/09/08 02:52:37;;;;;;;15.47;14.07;;;17.80;1.00;;;;;;5065809;28;21155;-73
2023/09/08 02:55:04;;;;;;;14.77;13.60;;;17.80;1.00;;;;;;5068282;28;20463;-71
2023/09/08 02:57:31;;;;;;;13.70;12.50;;;17.80;1.00;;;;;;5073599;28;20906;-72
2023/09/08 02:59:58;;;;;;;15.73;14.23;;;17.80;1.00;;;;;;5072369;28;20522;-72
2023/09/08 03:02:26;;;;;;;14.90;13.70;;;17.70;1.00;;;;;;5071745;28;20842;-72
2023/09/08 03:04:53;;;;;;;15.60;14.20;;;17.60;1.00;;;;;;5068966;28;20554;-73
2023/09/08 03:07:20;;;;;;;15.00;13.70;;;17.60;1.00;;;;;;5064601;28;20456;-72
2023/09/08 03:09:48;;;;;;;14.97;13.50;;;17.60;1.00;;;;;;5077659;28;22010;-71
2023/09/08 03:12:15;;;;;;;14.70;13.50;;;17.60;1.00;;;;;;5075046;28;20460;-73
2023/09/08 03:14:42;;;;;;;15.23;13.93;;;17.60;1.00;;;;;;5068523;28;20510;-73
2023/09/08 03:17:09;;;;;;;16.00;14.53;;;17.60;1.00;;;;;;5063789;28;20520;-72
2023/09/08 03:19:36;;;;;;;17.27;15.63;;;17.60;1.00;;;;;;5066723;28;20970;-74
2023/09/08 03:22:03;;;;;;;15.97;14.33;;;17.60;1.00;;;;;;5069538;28;20460;-72
2023/09/08 03:24:30;;;;;;;16.80;15.10;;;17.50;1.00;;;;;;5070133;28;20464;-75
2023/09/08 03:26:58;;;;;;;16.10;14.80;;;17.40;1.00;;;;;;5072668;28;20562;-75
2023/09/08 03:29:26;;;;;;;16.40;14.40;;;17.40;1.00;;;;;;5074434;28;20487;-71
2023/09/08 03:31:53;;;;;;;17.07;15.47;;;17.40;1.00;;;;;;5071469;28;20943;-73
2023/09/08 03:34:20;;;;;;;17.40;15.60;;;17.40;1.00;;;;;;5082565;28;20464;-76
2023/09/08 03:36:47;;;;;;;20.03;15.10;;;17.30;1.00;;;;;;5082940;28;20831;-76
2023/09/08 03:39:14;;;;;;;16.33;14.93;;;17.30;1.00;;;;;;5085798;28;20846;-75
2023/09/08 03:41:41;;;;;;;17.07;15.40;;;17.30;1.00;;;;;;5084057;28;20479;-75
2023/09/08 03:44:09;;;;;;;16.40;14.80;;;17.20;1.00;;;;;;5082670;28;21075;-75
2023/09/08 03:46:37;;;;;;;23.27;15.60;;;17.20;1.00;;;;;;5082547;28;20505;-78
2023/09/08 03:49:04;;;;;;;17.50;14.33;;;17.20;1.00;;;;;;5081484;28;20447;-74
2023/09/08 03:51:31;;;;;;;17.43;14.50;;;17.20;1.00;;;;;;5086200;28;20474;-76
2023/09/08 03:53:58;;;;;;;18.53;16.77;;;17.20;1.00;;;;;;5083516;28;20916;-73
2023/09/08 03:56:25;;;;;;;16.80;15.00;;;17.20;1.00;;;;;;5081579;28;20826;-73
2023/09/08 03:58:52;;;;;;;17.60;15.90;;;17.10;1.00;;;;;;5084302;28;22569;-76
2023/09/08 04:01:20;;;;;;;18.47;16.97;;;17.10;1.00;;;;;;5078605;28;20476;-76
2023/09/08 04:03:47;;;;;;;18.67;17.07;;;17.10;1.00;;;;;;5065216;28;20474;-74
2023/09/08 04:06:14;;;;;;;17.13;15.43;;;17.10;1.00;;;;;;5071848;28;21268;-75
2023/09/08 04:08:41;;;;;;;17.90;15.63;;;17.10;1.00;;;;;;5078771;28;20478;-74
2023/09/08 04:11:08;;;;;;;18.33;16.30;;;17.10;1.00;;;;;;5074150;28;21081;-73
2023/09/08 04:13:35;;;;;;;17.53;16.03;;;17.10;1.00;;;;;;5067844;28;20474;-75
2023/09/08 04:16:02;;;;;;;17.60;16.20;;;17.10;1.00;;;;;;5075548;28;20442;-73
2023/09/08 04:18:31;;;;;;;17.67;15.70;;;17.10;1.00;;;;;;5071052;28;20608;-74
2023/09/08 04:20:58;;;;;;;17.37;15.83;;;17.00;1.00;;;;;;5070469;28;20688;-74
2023/09/08 04:23:25;;;;;;;18.93;17.10;;;17.00;1.00;;;;;;5079684;28;20468;-75
2023/09/08 04:25:52;;;;;;;18.30;16.80;;;17.00;1.00;;;;;;5071500;28;20553;-74
2023/09/08 04:28:18;;;;;;;17.33;15.53;;;17.00;1.00;;;;;;5080317;27;20512;-75
2023/09/08 04:30:45;;;;;;;18.80;17.30;;;17.00;1.00;;;;;;5082068;28;20540;-75
2023/09/08 04:33:13;;;;;;;16.63;14.87;;;16.90;1.00;;;;;;5074066;28;20500;-76
2023/09/08 04:35:41;;;;;;;17.40;15.60;;;16.90;1.00;;;;;;5086533;28;20469;-75
2023/09/08 04:38:08;;;;;;;19.20;17.40;;;16.90;1.00;;;;;;5081954;28;20451;-75
2023/09/08 04:40:35;;;;;;;21.63;17.57;;;16.90;1.00;;;;;;5084302;28;20650;-74
2023/09/08 04:43:02;;;;;;;17.87;16.27;;;16.90;1.00;;;;;;5078014;28;21952;-72
2023/09/08 04:45:29;;;;;;;17.93;16.33;;;16.80;1.00;;;;;;5072839;28;20451;-71
2023/09/08 04:47:56;;;;;;;21.20;18.97;;;16.90;1.00;;;;;;5075973;28;20594;-74
2023/09/08 04:50:23;;;;;;;17.87;16.07;;;16.90;1.00;;;;;;5072331;28;20962;-73
2023/09/08 04:52:51;;;;;;;18.70;17.00;;;16.90;1.00;;;;;;5067926;28;20966;-70
2023/09/08 04:55:19;;;;;;;19.20;17.43;;;16.90;1.00;;;;;;5075238;28;20463;-71
2023/09/08 04:57:46;;;;;;;19.10;17.43;;;17.00;1.00;;;;;;5071147;28;20480;-71
2023/09/08 05:00:14;;;;;;;16.40;14.87;;;17.00;1.00;;;;;;5076500;28;21426;-72
2023/09/08 05:02:41;;;;;;;16.80;15.37;;;17.10;1.00;;;;;;5076663;28;20478;-72
2023/09/08 05:05:09;;;;;;;18.70;17.03;;;17.10;1.00;;;;;;5070956;28;20580;-71
2023/09/08 05:07:36;;;;;;;17.27;15.87;;;17.10;1.00;;;;;;5071655;28;20475;-71
2023/09/08 05:10:04;;;;;;;17.77;16.17;;;17.10;1.00;;;;;;5071295;28;20454;-74
2023/09/08 05:12:31;;;;;;;18.23;16.63;;;17.10;1.00;;;;;;5072197;28;20502;-70
2023/09/08 05:15:05;;;;;;;17.63;16.10;;;17.10;1.00;;;;;;5072783;28;20970;-71
2023/09/08 05:17:32;;;;;;;17.27;15.70;;;17.20;1.00;;;;;;5072744;28;20549;-73
2023/09/08 05:19:59;;;;;;;18.03;16.23;;;17.20;1.00;;;;;;5068005;28;20588;-72
2023/09/08 05:22:26;;;;;;;18.47;16.80;;;17.20;1.00;;;;;;5069710;28;20558;-72
2023/09/08 05:24:53;;;;;;;18.93;17.07;;;17.20;1.00;;;;;;5073748;28;20515;-73
2023/09/08 05:27:22;;;;;;;18.07;16.47;;;17.30;1.00;;;;;;5075123;28;21874;-71
2023/09/08 05:29:49;;;;;;;18.03;16.43;;;17.30;1.00;;;;;;5070582;28;20513;-72
2023/09/08 05:32:16;;;;;;;15.90;14.60;;;17.40;1.00;;;;;;5070701;28;21370;-74
2023/09/08 05:34:43;;;;;;;17.27;15.87;;;17.40;1.00;;;;;;5079816;28;20561;-74
2023/09/08 05:37:10;;;;;;;16.90;15.60;;;17.50;1.00;;;;;;5078278;28;20492;-73
2023/09/08 05:39:36;;;;;;;18.87;17.00;;;17.50;1.00;;;;;;5078348;28;20684;-72
2023/09/08 05:42:07;;;;;;;18.97;16.97;;;17.60;1.00;;;;;;5079017;28;20530;-71
2023/09/08 05:44:35;;;;;;;16.73;15.43;;;17.60;1.00;;;;;;5078693;28;20452;-70
2023/09/08 05:47:02;;;;;;;21.03;18.83;;;17.70;1.00;;;;;;5076191;28;20459;-72
2023/09/08 05:49:29;;;;;;;18.23;15.43;;;17.80;1.00;;;;;;5077411;28;20618;-72
2023/09/08 05:51:56;;;;;;;17.57;15.63;;;17.90;1.00;;;;;;5083932;28;20550;-72
2023/09/08 05:54:23;;;;;;;18.57;16.30;;;17.90;1.00;;;;;;5085243;28;20989;-75
2023/09/08 05:56:50;;;;;;;17.47;15.83;;;18.00;1.00;;;;;;5074411;28;20925;-75
2023/09/08 05:59:17;;;;;;;17.97;16.37;;;18.10;1.00;;;;;;5075772;28;20496;-73
2023/09/08 06:01:45;;;;;;;17.07;15.53;;;18.20;1.00;;;;;;5072483;28;20483;-71
2023/09/08 06:04:12;;;;;;;15.50;14.30;;;18.20;1.00;;;;;;5074717;28;20549;-71
2023/09/08 06:06:39;;;;;;;17.03;15.63;;;18.20;1.00;;;;;;5083573;28;20469;-71
2023/09/08 06:09:08;;;;;;;15.73;14.37;;;18.20;1.00;;;;;;5083948;28;20900;-73
2023/09/08 06:11:35;;;;;;;17.20;15.67;;;18.30;1.00;;;;;;5082058;28;20477;-72
2023/09/08 06:14:02;;;;;;;17.57;15.97;;;18.30;1.00;;;;;;5081792;28;20992;-73
2023/09/08 06:16:32;;;;;;;16.37;14.83;;;18.40;1.00;;;;;;5081922;28;20485;-74
2023/09/08 06:19:03;;;;;;;15.83;14.53;;;18.50;1.00;;;;;;5076914;28;20517;-73
2023/09/08 06:21:29;;;;;;;19.20;17.30;;;18.50;1.00;;;;;;5074059;28;20465;-75
2023/09/08 06:23:57;;;;;;;15.37;14.10;;;18.60;1.00;;;;;;5079669;28;20465;-73
2023/09/08 06:26:24;;;;;;;16.77;15.33;;;18.60;1.00;;;;;;5082675;28;20463;-74
2023/09/08 06:28:51;;;;;;;15.67;14.17;;;18.70;1.00;;;;;;5079676;28;20462;-74
2023/09/08 06:31:17;;;;;;;16.97;15.33;;;18.70;1.00;;;;;;5081874;28;20555;-75
2023/09/08 06:33:44;;;;;;;16.03;14.63;;;18.70;1.00;;;;;;5082593;28;21013;-75
2023/09/08 06:36:13;;;;;;;17.80;16.00;;;18.70;1.00;;;;;;5082266;28;20475;-73
2023/09/08 06:38:39;;;;;;;16.80;15.37;;;18.70;1.00;;;;;;5074270;28;20545;-73
2023/09/08 06:41:11;;;;;;;16.70;15.30;;;18.70;1.00;;;;;;5073869;28;20464;-75
2023/09/08 06:43:38;;;;;;;16.30;14.80;;;18.70;1.00;;;;;;5084688;28;20467;-74
2023/09/08 06:46:05;;;;;;;15.67;14.03;;;18.80;1.00;;;;;;5081306;28;20494;-73
2023/09/08 06:48:32;;;;;;;15.57;13.97;;;18.90;1.00;;;;;;5082302;28;20462;-76
2023/09/08 06:50:59;;;;;;;15.27;13.87;;;19.10;1.00;;;;;;5081229;28;20975;-74
2023/09/08 06:53:27;;;;;;;15.40;13.93;;;19.30;1.00;;;;;;5080296;28;20881;-73
2023/09/08 06:55:54;;;;;;;14.10;12.93;;;19.40;1.00;;;;;;5074435;28;21836;-74
2023/09/08 06:58:21;;;;;;;15.13;13.70;;;19.40;1.00;;;;;;5075638;28;21286;-74
2023/09/08 07:00:54;;;;;;;15.70;14.20;;;19.50;1.00;;;;;;5077319;28;20448;-73
2023/09/08 07:03:21;;;;;;;15.40;14.00;;;19.70;1.00;;;;;;5077136;28;20541;-69
2023/09/08 07:05:48;;;;;;;15.37;13.60;;;19.80;1.00;;;;;;5075674;28;20458;-73
2023/09/08 07:08:15;;;;;;;15.33;13.93;;;20.00;1.00;;;;;;5081186;28;20874;-74
2023/09/08 07:11:19;;;;;;;13.87;12.77;;;20.10;1.00;;;;;;5084650;28;20470;-79
2023/09/08 07:13:48;;;;;;;15.00;13.70;;;20.30;1.00;;;;;;5073529;28;20473;-75
2023/09/08 07:16:14;;;;;;;13.73;12.30;;;20.40;1.00;;;;;;5075980;28;20447;-73
2023/09/08 07:18:41;;;;;;;12.90;11.77;;;20.50;1.00;;;;;;5071808;28;21196;-73
2023/09/08 07:21:08;;;;;;;16.00;14.47;;;20.50;1.00;;;;;;5081964;28;20462;-72
2023/09/08 07:23:38;;;;;;;12.93;11.80;;;20.60;1.00;;;;;;5082859;28;20878;-74
2023/09/08 07:26:05;;;;;;;13.20;12.10;;;20.70;1.00;;;;;;5075071;28;20893;-74
2023/09/08 07:28:33;;;;;;;14.43;13.13;;;21.00;1.00;;;;;;5082599;28;20593;-73
2023/09/08 07:31:08;;;;;;;13.73;12.53;;;21.10;1.00;;;;;;5075869;28;20470;-75
2023/09/08 07:33:36;;;;;;;12.93;11.90;;;21.30;1.00;;;;;;5079903;28;20985;-72
2023/09/08 07:36:10;;;;;;;13.37;12.20;;;21.40;1.00;;;;;;5079082;28;21404;-77
2023/09/08 07:38:37;;;;;;;12.57;11.40;;;21.60;1.00;;;;;;5080499;28;20462;-80
2023/09/08 07:41:04;;;;;;;12.27;11.20;;;21.80;1.00;;;;;;5090160;28;20522;-79
2023/09/08 07:43:31;;;;;;;13.00;11.80;;;21.80;1.00;;;;;;5088676;28;20583;-74
2023/09/08 07:45:58;;;;;;;12.10;11.20;;;21.90;1.00;;;;;;5088937;28;21655;-75
2023/09/08 07:48:27;;;;;;;12.40;11.20;;;22.00;1.00;;;;;;5086345;28;20453;-74
2023/09/08 07:50:53;;;;;;;12.57;11.57;;;22.10;1.00;;;;;;5085709;28;20527;-76
2023/09/08 07:53:20;;;;;;;11.77;10.73;;;22.30;1.00;;;;;;5082947;28;20443;-74
2023/09/08 07:55:49;;;;;;;12.37;11.27;;;22.40;1.00;;;;;;5078949;28;20555;-75
2023/09/08 07:58:16;;;;;;;12.60;11.37;;;22.50;1.00;;;;;;5084644;28;20445;-75
2023/09/08 08:00:43;;;;;;;12.37;11.40;;;22.60;1.00;;;;;;5086489;28;20480;-75
2023/09/08 08:03:10;;;;;;;12.07;11.07;;;22.70;1.00;;;;;;5086123;28;20419;-75
2023/09/08 08:05:38;;;;;;;12.07;11.03;;;22.90;1.00;;;;;;5079773;28;20489;-72
2023/09/08 08:08:06;;;;;;;12.67;11.00;;;23.00;1.00;;;;;;5081882;28;20454;-71
2023/09/08 08:10:33;;;;;;;12.93;11.63;;;23.20;1.00;;;;;;5084889;28;20491;-73
2023/09/08 08:13:00;;;;;;;12.67;11.43;;;23.20;1.00;;;;;;5080164;28;20479;-71
2023/09/08 08:15:37;;;;;;;12.00;11.00;;;23.40;1.00;;;;;;5070583;28;20462;-73
2023/09/08 08:18:05;;;;;;;11.97;10.73;;;23.50;1.00;;;;;;5073251;28;20450;-70
2023/09/08 08:20:34;;;;;;;12.10;11.00;;;23.50;1.00;;;;;;5073582;28;20481;-76
2023/09/08 08:23:03;;;;;;;12.47;11.17;;;23.60;1.00;;;;;;5077987;28;20910;-74
2023/09/08 08:25:30;;;;;;;12.13;10.93;;;23.80;1.00;;;;;;5074737;28;20462;-74
2023/09/08 08:27:58;;;;;;;12.33;10.73;;;23.90;1.00;;;;;;5071672;28;20469;-72
2023/09/08 08:30:25;;;;;;;11.70;10.70;;;24.00;1.00;;;;;;5076854;28;20472;-74
2023/09/08 08:32:53;;;;;;;11.50;10.47;;;24.20;1.00;;;;;;5074872;28;20471;-73
2023/09/08 08:35:20;;;;;;;13.03;11.93;;;24.30;1.00;;;;;;5075776;28;20960;-75
2023/09/08 08:37:47;;;;;;;11.47;10.47;;;24.30;1.00;;;;;;5076076;27;20593;-74
2023/09/08 08:40:16;;;;;;;12.50;11.40;;;24.50;1.00;;;;;;5076153;28;21027;-72
2023/09/08 08:42:44;;;;;;;12.20;11.00;;;24.50;1.00;;;;;;5075701;28;20484;-72
2023/09/08 08:45:11;;;;;;;11.43;10.33;;;24.70;1.00;;;;;;5056591;28;21019;-72
2023/09/08 08:47:43;;;;;;;11.37;10.30;;;24.80;1.00;;;;;;5074707;28;20546;-75
2023/09/08 08:50:12;;;;;;;10.47;9.67;;;25.00;1.00;;;;;;5072220;28;20467;-74
2023/09/08 08:52:39;;;;;;;10.47;9.63;;;25.00;1.00;;;;;;5073620;28;21025;-75
2023/09/08 08:55:08;;;;;;;10.27;9.37;;;25.30;1.00;;;;;;5082800;28;20539;-72
2023/09/08 08:57:38;;;;;;;10.47;9.53;;;25.40;1.00;;;;;;5083643;28;20546;-71
2023/09/08 09:00:09;;;;;;;10.10;9.30;;;25.60;1.00;;;;;;5078294;28;20472;-73
2023/09/08 09:02:37;;;;;;;10.30;9.30;;;25.80;1.00;;;;;;5070580;28;20485;-72
2023/09/08 09:05:05;;;;;;;10.07;9.17;;;26.00;1.00;;;;;;5082472;28;20455;-73
2023/09/08 09:07:33;;;;;;;9.17;8.37;;;26.10;1.00;;;;;;5070957;28;20470;-71
2023/09/08 09:10:01;;;;;;;9.90;8.90;;;26.10;1.00;;;;;;5070946;28;21098;-71
2023/09/08 09:12:28;;;;;;;9.00;8.33;;;26.20;1.00;;;;;;5074597;28;20466;-73
2023/09/08 09:14:59;;;;;;;12.50;9.97;;;26.50;1.00;;;;;;5076947;28;20462;-70
2023/09/08 09:17:26;;;;;;;10.60;9.80;;;26.80;1.00;;;;;;5078502;28;21002;-72
2023/09/08 09:20:14;;;;;;;9.83;8.83;;;27.30;1.00;;;;;;5072213;28;20644;-72
2023/09/08 09:22:41;;;;;;;9.60;8.80;;;28.60;1.00;;;;;;5078436;27;20891;-73
2023/09/08 09:25:09;;;;;;;10.23;9.43;;;30.10;1.00;;;;;;5080153;28;20463;-73
2023/09/08 09:27:37;;;;;;;9.20;8.23;;;31.50;1.00;;;;;;5080205;28;20958;-72
2023/09/08 09:30:07;;;;;;;8.57;7.87;;;32.70;1.00;;;;;;5078024;28;21674;-72
2023/09/08 09:32:35;;;;;;;8.40;7.60;;;34.10;1.00;;;;;;5082240;28;20532;-72
2023/09/08 09:35:03;;;;;;;10.30;7.47;;;34.30;1.00;;;;;;5076990;28;20469;-75
2023/09/08 09:37:31;;;;;;;8.03;7.33;;;35.00;1.00;;;;;;5083267;28;20457;-73
2023/09/08 09:39:58;;;;;;;11.53;10.70;;;35.40;1.00;;;;;;5086689;28;20577;-72
2023/09/08 09:42:25;;;;;;;7.90;7.20;;;36.00;1.00;;;;;;5076594;28;20944;-72
2023/09/08 09:44:53;;;;;;;6.90;6.30;;;36.60;1.00;;;;;;5074291;28;20568;-72
2023/09/08 09:47:23;;;;;;;6.33;5.80;;;37.20;1.00;;;;;;5074240;28;20508;-72
2023/09/08 09:49:50;;;;;;;6.93;6.33;;;37.30;1.00;;;;;;5074960;28;20541;-70
2023/09/08 09:52:23;;;;;;;6.70;6.17;;;37.20;1.00;;;;;;5083990;28;20580;-70
2023/09/08 09:54:51;;;;;;;7.83;6.77;;;37.40;1.00;;;;;;5085822;28;20489;-72
2023/09/08 09:57:22;;;;;;;8.90;6.60;;;37.10;1.00;;;;;;5075376;28;20645;-72
2023/09/08 09:59:50;;;;;;;7.33;6.73;;;37.10;1.00;;;;;;5071356;28;20466;-75
2023/09/08 10:02:20;;;;;;;8.20;7.40;;;37.60;1.00;;;;;;5071669;28;20465;-75
2023/09/08 10:04:50;;;;;;;8.60;7.80;;;37.80;1.00;;;;;;5068193;28;20459;-73
2023/09/08 10:07:18;;;;;;;7.20;6.50;;;38.00;1.00;;;;;;5067337;28;20455;-75
2023/09/08 10:09:45;;;;;;;7.40;6.80;;;38.30;1.00;;;;;;5077351;28;20490;-72
2023/09/08 10:12:16;;;;;;;6.83;6.27;;;38.20;1.00;;;;;;5081284;28;20556;-71
2023/09/08 10:14:43;;;;;;;6.80;6.20;;;38.70;1.00;;;;;;5080694;28;20490;-72
2023/09/08 10:17:17;;;;;;;6.23;5.73;;;39.20;1.00;;;;;;5075422;28;20464;-72
2023/09/08 10:19:51;;;;;;;7.10;6.50;;;39.40;1.00;;;;;;5077789;28;20463;-70
2023/09/08 10:22:26;;;;;;;6.97;6.37;;;39.30;1.00;;;;;;5081225;28;20458;-71
2023/09/08 10:24:55;;;;;;;8.63;6.97;;;38.90;1.00;;;;;;5071039;28;20461;-73
2023/09/08 10:27:23;;;;;;;7.20;6.50;;;39.20;1.00;;;;;;5073189;28;20990;-75
2023/09/08 10:29:51;;;;;;;7.00;6.47;;;39.60;1.00;;;;;;5074317;28;20477;-76
2023/09/08 10:32:20;;;;;;;7.13;6.37;;;39.90;1.00;;;;;;5076721;28;20856;-73
2023/09/08 10:34:49;;;;;;;6.83;6.37;;;40.10;1.00;;;;;;5069185;28;20702;-74
2023/09/08 10:37:22;;;;;;;7.07;6.57;;;40.20;1.00;;;;;;5073725;28;21002;-74
2023/09/08 10:39:49;;;;;;;7.00;6.50;;;40.70;1.00;;;;;;5071834;28;20531;-74
2023/09/08 10:42:28;;;;;;;7.70;7.00;;;40.80;1.00;;;;;;5072944;28;21002;-74
2023/09/08 10:45:05;;;;;;;7.63;7.07;;;41.10;1.00;;;;;;5072295;28;20486;-76
2023/09/08 10:47:37;;;;;;;6.90;6.20;;;41.10;1.00;;;;;;5073679;28;20459;-73
2023/09/08 10:50:05;;;;;;;7.87;7.27;;;40.60;1.00;;;;;;5078110;28;20540;-72
2023/09/08 10:52:35;;;;;;;8.57;7.67;;;40.70;1.00;;;;;;5077162;28;20522;-73
2023/09/08 10:55:02;;;;;;;7.40;6.90;;;40.90;1.00;;;;;;5075530;28;20529;-73
2023/09/08 10:57:33;;;;;;;7.93;7.33;;;41.10;1.00;;;;;;5077533;28;22963;-73
2023/09/08 11:00:11;;;;;;;6.23;5.83;;;41.40;1.00;;;;;;5074088;28;20981;-73
2023/09/08 11:02:40;;;;;;;7.10;6.60;;;41.80;1.00;;;;;;5077820;28;20607;-73
2023/09/08 11:05:09;;;;;;;7.00;6.60;;;41.80;1.00;;;;;;5076220;28;21020;-73
2023/09/08 11:07:41;;;;;;;8.13;7.33;;;42.10;1.00;;;;;;5077302;28;20531;-73
2023/09/08 11:10:10;;;;;;;7.10;6.70;;;42.10;1.00;;;;;;5078941;28;20493;-73
2023/09/08 11:12:37;;;;;;;7.07;6.57;;;42.00;1.00;;;;;;5077709;28;20446;-74
2023/09/08 11:15:07;;;;;;;8.07;7.27;;;41.70;1.00;;;;;;5077748;28;20545;-74
2023/09/08 11:17:35;;;;;;;6.70;6.10;;;42.40;1.00;;;;;;5081680;28;20469;-72
2023/09/08 11:20:08;;;;;;;6.93;6.20;;;42.80;1.00;;;;;;5081924;28;20552;-72
2023/09/08 11:22:37;;;;;;;6.97;6.30;;;41.70;1.00;;;;;;5077658;28;20571;-73
2023/09/08 11:25:08;;;;;;;6.07;5.67;;;42.00;1.00;;;;;;5080828;28;21000;-72
2023/09/08 11:27:36;;;;;;;46.60;42.53;;;42.40;1.00;;;;;;5081032;28;21925;-72
2023/09/08 11:30:04;;;;;;;6.60;6.00;;;41.80;1.00;;;;;;5083317;28;20484;-73
2023/09/08 11:32:34;;;;;;;7.20;6.70;;;42.20;1.00;;;;;;5082999;28;20994;-73
2023/09/08 11:35:05;;;;;;;12.00;11.20;;;42.20;1.00;;;;;;5082484;28;20466;-73
2023/09/08 11:37:31;;;;;;;8.10;7.50;;;43.00;1.00;;;;;;5085584;28;20463;-70
2023/09/08 11:39:58;;;;;;;6.50;6.10;;;43.50;1.00;;;;;;5085129;28;20470;-71
2023/09/08 11:42:28;;;;;;;6.27;5.80;;;43.50;1.00;;;;;;5082455;28;21028;-71
2023/09/08 11:44:57;;;;;;;6.20;5.70;;;44.00;1.00;;;;;;5082505;28;20892;-71
2023/09/08 11:47:25;;;;;;;5.73;5.20;;;43.80;1.00;;;;;;5064701;28;20462;-69
2023/09/08 11:49:54;;;;;;;7.30;6.80;;;43.80;1.00;;;;;;5084826;28;20573;-70
2023/09/08 11:52:24;;;;;;;7.33;6.77;;;43.90;1.00;;;;;;5086408;28;20475;-70
2023/09/08 11:54:52;;;;;;;6.80;6.20;;;44.10;1.00;;;;;;5084461;28;20473;-70
2023/09/08 11:57:19;;;;;;;6.40;6.00;;;44.00;1.00;;;;;;5088422;28;20892;-71
2023/09/08 11:59:48;;;;;;;10.30;6.63;;;44.30;1.00;;;;;;5086886;28;20502;-71
2023/09/08 12:02:15;;;;;;;7.40;6.70;;;44.40;1.00;;;;;;5083093;28;20950;-70
2023/09/08 12:04:42;;;;;;;8.47;6.23;;;44.70;1.00;;;;;;5082893;28;21023;-69
2023/09/08 12:07:16;;;;;;;6.67;6.17;;;45.50;1.00;;;;;;5087824;28;20457;-70
2023/09/08 12:09:43;;;;;;;7.33;6.63;;;45.10;1.00;;;;;;5085454;28;20968;-71
2023/09/08 12:12:12;;;;;;;7.80;7.30;;;44.50;1.00;;;;;;5081826;28;20482;-70
2023/09/08 12:14:42;;;;;;;6.93;6.33;;;44.70;1.00;;;;;;5086545;28;20470;-71
2023/09/08 12:17:10;;;;;;;6.80;6.20;;;44.80;1.00;;;;;;5085926;28;20466;-72
2023/09/08 12:19:38;;;;;;;6.37;5.60;;;45.00;1.00;;;;;;5081883;28;20608;-69
2023/09/08 12:22:07;;;;;;;5.60;5.20;;;44.50;1.00;;;;;;5083540;28;20457;-70
2023/09/08 12:24:51;;;;;;;5.97;5.67;;;44.50;1.00;;;;;;5085840;28;20555;-71
2023/09/08 12:27:19;;;;;;;5.70;5.30;;;45.20;1.00;;;;;;5081542;28;20466;-70
2023/09/08 12:29:56;;;;;;;5.90;5.33;;;45.40;1.00;;;;;;5081598;28;20493;-71
2023/09/08 12:32:25;;;;;;;6.13;5.73;;;45.60;1.00;;;;;;5085913;28;20490;-70
2023/09/08 12:34:53;;;;;;;6.20;5.80;;;45.90;1.00;;;;;;5084900;28;20930;-70
2023/09/08 12:37:23;;;;;;;6.23;5.70;;;46.10;1.00;;;;;;5082705;28;20462;-71
2023/09/08 12:39:50;;;;;;;6.70;6.20;;;46.00;1.00;;;;;;5088271;28;20478;-70
2023/09/08 12:42:19;;;;;;;5.97;5.47;;;45.40;1.00;;;;;;5082514;27;20569;-73
2023/09/08 12:44:46;;;;;;;6.50;6.00;;;45.50;1.00;;;;;;5084344;28;20902;-72
2023/09/08 12:47:13;;;;;;;7.30;6.70;;;44.90;1.00;;;;;;5084885;28;20550;-71
2023/09/08 12:49:42;;;;;;;6.47;5.57;;;45.10;1.00;;;;;;5086722;28;20561;-70
2023/09/08 12:52:09;;;;;;;6.60;6.03;;;44.70;1.00;;;;;;5081719;28;20458;-71
2023/09/08 12:54:36;;;;;;;6.83;6.33;;;43.70;1.00;;;;;;5084349;28;20498;-71